CYMT Airport Information

Runway Information
Runway 05 Length 6496 ft width 150 ft
Elevation 1262 ft Threshold ft Heading 28
Runway 23 Length 6496 ft Width 150 ft
Elevation 1270 ft Threshold ft Heading 208
Airport Frequencies
Type CNTR Name MONTREAL C Frequency 127.3 MHZ
Type RCO Name QUEBEC RDO Frequency 122 MHZ
Airport Navaids
Type NDB Name Chiboo Frequency 209 KHZ
Type DME Name Chiboo Frequency 112100 KHZ
Airport Weather Information & NOTAM
ADDS - METARS form results

(0912 UTC 27 June 2022)
Data provider http://aviationweather.gov/metar/data/
 
METAR text: CYMT 270900Z AUTO 22005KT 9SM SCT081 14/13 A2966 RMK SLP049 DENSITY ALT 1800FT
Conditions at: CYMT (CHIBOUGAMAU CHAP, QC, CA) observed 0900 UTC 27 June 2022
Temperature: 14.0°C (57°F)
Dewpoint: 13.0°C (55°F) [RH = 94%]
Pressure (altimeter): 29.66 inches Hg (1004.5 mb)
[Sea-level pressure: 1004.9 mb]
Winds: from the SW (220 degrees) at 6 MPH (5 knots; 2.6 m/s)
Visibility: 9 miles (14 km)
Ceiling: at least 12,000 feet AGL
Clouds: scattered clouds at 8100 feet AGL
Weather: no significant weather observed at this time